createdAt,value
2022-10-02T00:02:11.084Z,11.44
2022-10-02T00:07:14.460Z,11.50
2022-10-02T00:12:16.394Z,11.49
2022-10-02T00:17:22.130Z,11.37
2022-10-02T00:29:16.444Z,11.24
2022-10-02T00:36:09.463Z,11.08
2022-10-02T00:41:29.951Z,11.24
2022-10-02T00:46:59.194Z,11.25
2022-10-02T00:52:39.602Z,11.20
2022-10-02T00:58:10.035Z,11.40
2022-10-02T01:03:38.935Z,11.33
2022-10-02T01:08:40.255Z,11.32
2022-10-02T01:13:41.825Z,11.33
2022-10-02T01:18:47.667Z,11.36
2022-10-02T01:24:08.228Z,11.28
2022-10-02T01:29:08.991Z,11.21
2022-10-02T01:34:10.217Z,11.34
2022-10-02T01:39:11.404Z,11.14
2022-10-02T01:44:14.193Z,11.12
2022-10-02T01:54:39.045Z,11.27
2022-10-02T01:59:50.969Z,11.25
2022-10-02T02:09:45.460Z,11.36
2022-10-02T02:15:04.233Z,11.18
2022-10-02T02:20:12.882Z,11.20
2022-10-02T02:25:18.345Z,11.27
2022-10-02T02:30:20.974Z,11.20
2022-10-02T02:36:11.908Z,11.34
2022-10-02T02:41:18.764Z,11.29
2022-10-02T02:46:33.186Z,11.26
2022-10-02T02:51:41.965Z,11.38
2022-10-02T02:56:44.966Z,11.42
2022-10-02T03:01:45.935Z,11.41
2022-10-02T03:06:50.997Z,11.34
2022-10-02T03:12:14.654Z,11.43
2022-10-02T03:18:25.322Z,11.33
2022-10-02T03:24:49.232Z,11.28
2022-10-02T03:30:01.472Z,11.32
2022-10-02T03:35:05.179Z,11.26
2022-10-02T03:40:07.445Z,11.25
2022-10-02T03:45:09.869Z,11.20
2022-10-02T03:50:14.223Z,11.26
2022-10-02T03:55:36.299Z,11.28
2022-10-02T04:00:42.611Z,11.16
2022-10-02T04:06:02.124Z,11.18
2022-10-02T04:12:39.013Z,11.18
2022-10-02T04:17:47.095Z,11.19
2022-10-02T04:23:06.187Z,11.25
2022-10-02T04:28:14.555Z,11.17
2022-10-02T04:33:18.594Z,11.17
2022-10-02T04:40:32.409Z,11.20
2022-10-02T04:46:09.665Z,11.17
2022-10-02T04:51:34.446Z,11.07
2022-10-02T04:57:02.938Z,11.05
2022-10-02T05:03:01.762Z,11.04
2022-10-02T05:13:02.331Z,11.03
2022-10-02T05:18:45.469Z,11.05
2022-10-02T05:27:44.996Z,10.98
2022-10-02T05:33:07.085Z,10.91
2022-10-02T05:39:06.495Z,10.90
2022-10-02T05:44:17.462Z,10.89
2022-10-02T05:49:24.764Z,10.85
2022-10-02T05:55:49.103Z,10.75
2022-10-02T06:01:07.224Z,10.70
2022-10-02T06:06:28.176Z,10.67
2022-10-02T06:11:49.663Z,10.69
2022-10-02T06:23:40.319Z,10.65
2022-10-02T06:28:50.409Z,10.63
2022-10-02T06:33:52.222Z,10.69
2022-10-02T06:40:42.115Z,10.77
2022-10-02T06:47:24.531Z,10.75
2022-10-02T06:55:43.548Z,10.78
2022-10-02T07:01:17.938Z,10.81
2022-10-02T07:09:46.702Z,10.85
2022-10-02T07:17:47.864Z,10.76
2022-10-02T07:26:08.527Z,10.79
2022-10-02T07:32:52.083Z,10.86
2022-10-02T07:45:28.717Z,10.83
2022-10-02T07:50:51.201Z,10.89
2022-10-02T07:55:55.041Z,11.02
2022-10-02T08:01:07.499Z,11.14
2022-10-02T08:06:08.688Z,11.07
2022-10-02T08:11:21.479Z,11.11
2022-10-02T08:16:27.871Z,11.14
2022-10-02T08:21:33.549Z,11.28
2022-10-02T08:26:42.461Z,11.25
2022-10-02T08:31:43.701Z,11.23
2022-10-02T08:40:08.657Z,11.15
2022-10-02T08:46:54.340Z,11.11
2022-10-02T08:53:38.431Z,11.08
2022-10-02T09:00:21.991Z,11.10
2022-10-02T09:05:51.802Z,11.23
2022-10-02T09:13:45.777Z,11.22
2022-10-02T09:19:31.758Z,11.36
2022-10-02T09:31:49.046Z,11.23
2022-10-02T09:38:08.246Z,11.17
2022-10-02T09:44:09.868Z,11.22
2022-10-02T09:49:41.806Z,11.16
2022-10-02T10:00:16.020Z,11.29
2022-10-02T10:05:59.223Z,11.28
2022-10-02T10:14:29.775Z,11.36
2022-10-02T10:26:36.313Z,11.57
2022-10-02T10:32:21.278Z,11.66
2022-10-02T10:39:05.163Z,11.72
2022-10-02T10:46:05.795Z,11.92
2022-10-02T10:53:10.979Z,11.84
2022-10-02T10:59:44.691Z,11.81
2022-10-02T11:08:06.208Z,11.88
2022-10-02T11:13:25.019Z,11.86
2022-10-02T11:18:58.047Z,11.78
2022-10-02T11:24:26.254Z,11.71
2022-10-02T11:29:55.771Z,11.68
2022-10-02T11:35:29.367Z,11.63
2022-10-02T11:41:00.961Z,11.75
2022-10-02T11:49:19.867Z,11.76
2022-10-02T11:54:52.431Z,11.71
2022-10-02T12:01:13.048Z,11.77
2022-10-02T12:06:41.450Z,11.81
2022-10-02T12:18:57.267Z,12.14
2022-10-02T12:27:11.473Z,12.40
2022-10-02T12:32:42.081Z,12.41
2022-10-02T12:38:12.361Z,12.55
2022-10-02T12:44:21.225Z,12.63
2022-10-02T12:59:42.790Z,12.59
2022-10-02T13:05:22.497Z,13.00
2022-10-02T13:10:27.409Z,12.57
2022-10-02T13:15:58.600Z,12.66
2022-10-02T13:24:43.244Z,12.65
2022-10-02T13:30:32.884Z,12.43
2022-10-02T13:36:06.284Z,12.28
2022-10-02T13:41:22.571Z,12.31
2022-10-02T13:53:30.979Z,12.17
2022-10-02T13:59:09.088Z,12.14
2022-10-02T14:04:29.322Z,12.09
2022-10-02T14:09:58.043Z,12.16
2022-10-02T14:15:43.305Z,11.92
2022-10-02T14:21:33.298Z,11.87
2022-10-02T14:27:08.334Z,11.80
2022-10-02T14:32:54.173Z,11.84
2022-10-02T14:39:22.398Z,11.82
2022-10-02T14:52:42.507Z,11.76
2022-10-02T14:58:06.532Z,11.73
2022-10-02T15:03:27.592Z,11.85
2022-10-02T15:08:42.226Z,11.85
2022-10-02T15:13:48.239Z,11.88
2022-10-02T15:19:02.844Z,11.94
2022-10-02T15:30:56.620Z,11.93
2022-10-02T15:38:51.619Z,11.77
2022-10-02T15:44:36.494Z,11.74
2022-10-02T15:56:43.243Z,11.69
2022-10-02T16:03:42.754Z,11.69
2022-10-02T16:11:59.144Z,11.59
2022-10-02T16:20:29.324Z,11.49
2022-10-02T16:28:57.575Z,11.47
2022-10-02T16:34:19.965Z,11.41
2022-10-02T16:39:49.958Z,11.41
2022-10-02T16:47:52.373Z,11.38
2022-10-02T16:53:10.838Z,11.47
2022-10-02T16:58:27.105Z,11.40
2022-10-02T17:03:36.477Z,11.42
2022-10-02T17:10:04.263Z,11.33
2022-10-02T17:16:58.336Z,11.20
2022-10-02T17:22:07.925Z,11.15
2022-10-02T17:28:01.186Z,11.13
2022-10-02T17:33:21.552Z,11.10
2022-10-02T17:38:46.625Z,11.03
2022-10-02T17:44:15.187Z,10.85
2022-10-02T17:49:31.157Z,10.69
2022-10-02T17:55:11.469Z,10.63
2022-10-02T18:00:23.113Z,10.63
2022-10-02T18:06:19.296Z,10.54
2022-10-02T18:16:01.678Z,10.54
2022-10-02T18:21:37.037Z,10.42
2022-10-02T18:29:36.285Z,10.35
2022-10-02T18:35:41.397Z,10.17
2022-10-02T18:41:18.926Z,10.17
2022-10-02T18:49:23.276Z,10.18
2022-10-02T18:54:42.795Z,10.06
2022-10-02T19:03:23.953Z,9.93
2022-10-02T19:08:55.156Z,9.90
2022-10-02T19:14:01.511Z,9.96
2022-10-02T19:19:28.026Z,9.86
2022-10-02T19:24:36.958Z,9.82
2022-10-02T19:29:52.814Z,9.83
2022-10-02T19:35:06.867Z,9.82
2022-10-02T19:40:18.378Z,9.80
2022-10-02T19:45:26.245Z,9.79
2022-10-02T19:50:42.396Z,9.77
2022-10-02T19:55:45.610Z,9.77
2022-10-02T20:00:50.011Z,9.73
2022-10-02T20:05:56.623Z,9.67
2022-10-02T20:11:44.489Z,9.64
2022-10-02T20:17:03.878Z,9.59
2022-10-02T20:22:15.120Z,9.60
2022-10-02T20:29:59.740Z,9.53
2022-10-02T20:35:35.549Z,9.48
2022-10-02T20:40:39.528Z,9.43
2022-10-02T20:51:01.360Z,9.46
2022-10-02T20:56:41.774Z,9.42
2022-10-02T21:02:23.390Z,9.40
2022-10-02T21:08:02.941Z,9.35
2022-10-02T21:16:13.989Z,9.32
2022-10-02T21:22:31.264Z,9.29
2022-10-02T21:29:01.028Z,9.27
2022-10-02T21:34:30.261Z,9.21
2022-10-02T21:40:37.459Z,9.20
2022-10-02T21:50:32.027Z,9.13
2022-10-02T21:56:12.243Z,9.08
2022-10-02T22:02:07.797Z,9.12
2022-10-02T22:07:21.607Z,9.13
2022-10-02T22:13:44.665Z,9.13
2022-10-02T22:20:45.716Z,9.14
2022-10-02T22:27:42.245Z,9.14
2022-10-02T22:33:30.982Z,9.18
2022-10-02T22:39:48.216Z,9.22
2022-10-02T22:44:55.595Z,9.26
2022-10-02T22:50:08.032Z,9.35
2022-10-02T22:55:33.409Z,9.27
2022-10-02T23:01:06.060Z,9.29
2022-10-02T23:06:30.683Z,9.24
2022-10-02T23:11:54.539Z,9.20
2022-10-02T23:17:16.168Z,9.10
2022-10-02T23:22:28.983Z,9.26
2022-10-02T23:27:50.945Z,9.30
2022-10-02T23:33:03.395Z,9.32
2022-10-02T23:39:53.368Z,9.28
2022-10-02T23:45:46.360Z,9.24
2022-10-02T23:56:58.088Z,9.22
